Terminal Aerodrome Forecast
Issued by NWS

Home | Current Version | Previous Version | Text Only | Print | Product List | Glossary On
Versions: 1 2 3 4 5 6 7 8 9 10 11 12 13 14 15 16 17
000
FTUS44 KEPZ 140500
TAFTCS
TAF
KTCS 140536Z 1406/1506 30011KT P6SM SCT070 SCT120 BKN250
      TEMPO 1409/1412 VRB25G35KT 6SM -TSRA BKN050CB OVC100
     FM141200 30008KT P6SM SCT060 SCT140 BKN200
     FM142200 19008KT P6SM VCTS SCT070CB BKN100 BKN200=

USA.gov is the U.S. government's official web portal to all federal, state and local government web resources and services.